Time;durP1;ratioP1;P1;durP2;ratioP2;P2;SDS_P1;SDS_P2;PMS_P1;PMS_P2;Temp;Humidity;BMP_temperature;BMP_pressure;BME280_temperature;BME280_humidity;BME280_pressure;Samples;Min_cycle;Max_cycle;Signal;HPM_P1;HPM_P2
2023/02/28 00:00:18;;;;;;;5.97;4.23;;;;;;;0.46;77.09;102372.94;4994880;28;20207;-81
2023/02/28 00:02:45;;;;;;;7.23;3.87;;;;;;;0.43;77.20;102366.78;4988658;28;20725;-81
2023/02/28 00:05:14;;;;;;;5.67;4.60;;;;;;;0.41;77.39;102369.41;4992625;28;20227;-81
2023/02/28 00:07:41;;;;;;;6.53;3.83;;;;;;;0.38;77.51;102369.38;4993821;28;20987;-83
2023/02/28 00:10:12;;;;;;;4.63;3.33;;;;;;;0.35;77.84;102364.13;5000648;28;20273;-83
2023/02/28 00:12:38;;;;;;;5.17;3.60;;;;;;;0.36;78.24;102365.00;4999585;28;20214;-83
2023/02/28 00:15:07;;;;;;;6.67;4.83;;;;;;;0.34;78.36;102368.50;5010529;28;20291;-84
2023/02/28 00:17:33;;;;;;;6.03;4.30;;;;;;;0.36;78.53;102371.09;4997550;28;20239;-83
2023/02/28 00:20:09;;;;;;;7.53;4.10;;;;;;;0.35;78.72;102372.00;5005332;28;20206;-84
2023/02/28 00:22:36;;;;;;;5.70;3.93;;;;;;;0.36;78.65;102365.84;5007318;28;20573;-84
2023/02/28 00:25:04;;;;;;;7.77;4.40;;;;;;;0.36;78.96;102362.41;5001824;28;20214;-83
2023/02/28 00:27:32;;;;;;;7.77;4.90;;;;;;;0.34;78.56;102360.63;4993742;28;20231;-84
2023/02/28 00:29:58;;;;;;;6.60;4.77;;;;;;;0.34;78.89;102365.88;5003013;28;20212;-83
2023/02/28 00:32:25;;;;;;;8.03;4.40;;;;;;;0.35;78.83;102369.38;5004095;28;20204;-83
2023/02/28 00:34:51;;;;;;;6.33;4.80;;;;;;;0.32;78.74;102365.00;4998440;28;20240;-83
2023/02/28 00:37:19;;;;;;;6.73;3.70;;;;;;;0.29;79.00;102369.31;5001167;28;20321;-83
2023/02/28 00:39:46;;;;;;;4.37;3.10;;;;;;;0.24;78.68;102364.06;5010906;28;20222;-83
2023/02/28 00:42:12;;;;;;;5.93;3.70;;;;;;;0.21;78.75;102365.78;5006739;28;20204;-83
2023/02/28 00:44:40;;;;;;;5.17;4.07;;;;;;;0.17;78.77;102367.53;5006041;28;20267;-83
2023/02/28 00:47:06;;;;;;;9.03;5.07;;;;;;;0.14;78.89;102362.25;5006071;28;20692;-82
2023/02/28 00:49:33;;;;;;;5.00;3.13;;;;;;;0.11;78.80;102370.09;5008589;28;20218;-83
2023/02/28 00:51:59;;;;;;;4.97;3.10;;;;;;;0.06;78.62;102368.28;4998666;28;20226;-84
2023/02/28 00:54:26;;;;;;;4.17;2.47;;;;;;;-0.01;78.60;102359.53;5002663;28;20745;-84
2023/02/28 00:56:53;;;;;;;2.53;2.27;;;;;;;-0.06;78.46;102366.47;5001729;28;20222;-83
2023/02/28 00:59:19;;;;;;;3.80;2.60;;;;;;;-0.12;78.57;102369.91;4996815;28;20213;-84
2023/02/28 01:01:47;;;;;;;5.50;3.20;;;;;;;-0.13;78.80;102369.88;4993517;28;20220;-83
2023/02/28 01:04:14;;;;;;;3.90;3.03;;;;;;;-0.17;79.01;102370.72;4984572;28;20212;-83
2023/02/28 01:06:41;;;;;;;3.80;3.20;;;;;;;-0.21;78.92;102367.22;5000072;28;20204;-82
2023/02/28 01:09:08;;;;;;;7.10;3.87;;;;;;;-0.23;79.01;102368.94;5006770;28;20583;-82
2023/02/28 01:11:35;;;;;;;8.13;4.37;;;;;;;-0.25;79.53;102372.41;5003905;28;20211;-84
2023/02/28 01:14:03;;;;;;;6.50;3.90;;;;;;;-0.29;79.08;102374.13;4999118;28;20312;-84
2023/02/28 01:16:30;;;;;;;4.20;3.10;;;;;;;-0.32;78.98;102373.22;4999268;28;20344;-84
2023/02/28 01:18:58;;;;;;;3.43;2.70;;;;;;;-0.38;78.95;102369.69;5001828;28;20580;-84
2023/02/28 01:21:25;;;;;;;4.37;3.03;;;;;;;-0.43;78.90;102366.16;4998568;28;20588;-85
2023/02/28 01:23:52;;;;;;;5.17;3.67;;;;;;;-0.47;78.97;102376.56;4996478;28;20203;-84
2023/02/28 01:26:21;;;;;;;5.10;3.33;;;;;;;-0.52;78.98;102375.66;4979612;28;20220;-84
2023/02/28 01:28:48;;;;;;;5.40;3.60;;;;;;;-0.58;79.24;102370.38;4995408;28;20699;-85
2023/02/28 01:31:14;;;;;;;7.30;3.90;;;;;;;-0.62;79.16;102369.47;4991965;28;20210;-84
2023/02/28 01:33:41;;;;;;;5.13;3.73;;;;;;;-0.66;79.23;102366.78;4998955;28;20234;-84
2023/02/28 01:36:12;;;;;;;5.37;3.53;;;;;;;-0.70;79.27;102366.75;5005254;28;20215;-84
2023/02/28 01:38:38;;;;;;;5.57;3.87;;;;;;;-0.74;79.45;102364.13;4988629;28;20230;-83
2023/02/28 01:41:05;;;;;;;4.80;3.67;;;;;;;-0.77;79.42;102372.81;5004311;28;20207;-84
2023/02/28 01:43:52;;;;;;;5.50;3.60;;;;;;;-0.81;79.74;102360.53;4993170;28;20216;-84
2023/02/28 01:46:19;;;;;;;4.50;4.00;;;;;;;-0.85;79.48;102361.38;4992815;28;20222;-83
2023/02/28 01:48:50;;;;;;;5.13;3.57;;;;;;;-0.89;79.58;102359.56;4984136;28;20224;-83
2023/02/28 01:51:22;;;;;;;4.83;3.40;;;;;;;-0.94;79.96;102352.56;4992303;28;20200;-84
2023/02/28 01:53:53;;;;;;;5.50;3.37;;;;;;;-0.98;79.97;102354.25;4994455;28;20219;-84
2023/02/28 01:56:24;;;;;;;4.13;3.23;;;;;;;-1.02;79.41;102347.22;4996860;28;20196;-83
2023/02/28 01:58:52;;;;;;;4.20;3.50;;;;;;;-1.06;79.50;102356.78;5004271;28;20225;-83
2023/02/28 02:01:21;;;;;;;5.57;3.60;;;;;;;-1.10;79.67;102369.81;4985517;28;20208;-83
2023/02/28 02:03:52;;;;;;;4.57;3.63;;;;;;;-1.14;79.60;102365.41;4996395;28;20208;-83
2023/02/28 02:06:20;;;;;;;5.73;4.00;;;;;;;-1.23;79.09;102362.66;4986062;28;20205;-83
2023/02/28 02:08:46;;;;;;;4.43;3.80;;;;;;;-1.31;78.77;102351.25;4997533;28;20231;-82
2023/02/28 02:11:18;;;;;;;7.23;3.80;;;;;;;-1.37;79.56;102353.78;4996045;28;20202;-83
2023/02/28 02:14:02;;;;;;;5.87;3.73;;;;;;;-1.43;79.56;102341.50;4993784;28;20216;-83
2023/02/28 02:16:41;;;;;;;5.27;4.07;;;;;;;-1.47;80.22;102348.44;4992083;28;20199;-83
2023/02/28 02:19:27;;;;;;;5.53;3.87;;;;;;;-1.49;79.84;102344.94;4985909;28;20215;-83
2023/02/28 02:22:21;;;;;;;4.50;3.50;;;;;;;-1.52;80.42;102338.78;5000621;28;20604;-83
2023/02/28 02:25:13;;;;;;;5.37;3.43;;;;;;;-1.58;80.18;102339.56;5002450;28;20708;-83
2023/02/28 02:28:06;;;;;;;5.57;3.67;;;;;;;-1.61;80.51;102336.91;4994791;28;20223;-82
2023/02/28 02:30:48;;;;;;;4.67;3.50;;;;;;;-1.64;80.63;102336.91;4975122;28;20568;-83
2023/02/28 02:33:57;;;;;;;4.87;3.47;;;;;;;-1.65;81.12;102340.38;4986493;28;20204;-83
2023/02/28 02:36:28;;;;;;;5.03;3.43;;;;;;;-1.67;80.96;102329.00;4999819;28;20203;-83
2023/02/28 02:39:00;;;;;;;5.53;3.80;;;;;;;-1.69;81.25;102328.09;5002709;28;20726;-82
2023/02/28 02:41:35;;;;;;;4.50;3.50;;;;;;;-1.70;80.92;102333.31;4984387;28;20212;-83
2023/02/28 02:44:07;;;;;;;5.80;3.67;;;;;;;-1.73;81.00;102328.91;4985077;28;20195;-82
2023/02/28 02:46:38;;;;;;;4.80;3.70;;;;;;;-1.76;80.92;102326.25;4997054;28;20703;-82
2023/02/28 02:49:10;;;;;;;7.37;4.17;;;;;;;-1.78;81.07;102327.97;4998232;28;20208;-82
2023/02/28 02:51:40;;;;;;;4.80;2.93;;;;;;;-1.82;81.28;102320.97;5007629;28;20211;-82
2023/02/28 02:54:12;;;;;;;4.90;3.80;;;;;;;-1.84;81.47;102330.50;4992604;28;20238;-82
2023/02/28 02:56:42;;;;;;;4.13;3.70;;;;;;;-1.86;81.87;102333.09;4993098;28;20271;-83
2023/02/28 02:59:12;;;;;;;6.90;4.00;;;;;;;-1.88;81.99;102333.94;4995430;28;20207;-83
2023/02/28 03:01:41;;;;;;;4.13;3.43;;;;;;;-1.92;81.82;102338.22;4992318;28;20207;-83
2023/02/28 03:04:12;;;;;;;4.40;3.40;;;;;;;-1.98;81.39;102347.72;4997709;28;20215;-83
2023/02/28 03:06:40;;;;;;;3.93;3.53;;;;;;;-2.06;81.29;102336.25;4992893;28;20611;-83
2023/02/28 03:09:07;;;;;;;4.30;2.90;;;;;;;-2.11;81.26;102346.63;4991371;28;20208;-83
2023/02/28 03:11:37;;;;;;;4.20;3.20;;;;;;;-2.16;81.60;102337.88;4996039;28;20211;-82
2023/02/28 03:14:30;;;;;;;5.13;3.47;;;;;;;-2.18;81.53;102340.47;4994439;28;20676;-83
2023/02/28 03:17:14;;;;;;;5.37;3.70;;;;;;;-2.22;81.90;102338.66;4984368;28;20207;-83
2023/02/28 03:19:52;;;;;;;5.30;3.87;;;;;;;-2.24;81.88;102342.97;5004423;28;20675;-83
2023/02/28 03:22:36;;;;;;;6.83;4.33;;;;;;;-2.26;82.00;102339.44;4991269;28;20219;-83
2023/02/28 03:25:09;;;;;;;6.57;3.87;;;;;;;-2.28;82.09;102338.53;4999292;28;20199;-83
2023/02/28 03:27:42;;;;;;;5.20;3.93;;;;;;;-2.29;82.26;102344.59;4998323;28;20228;-83
2023/02/28 03:30:16;;;;;;;5.30;3.47;;;;;;;-2.30;82.03;102336.75;5000027;28;20207;-83
2023/02/28 03:32:53;;;;;;;4.23;3.40;;;;;;;-2.34;82.46;102342.78;4999757;28;20778;-83
2023/02/28 03:35:24;;;;;;;4.77;3.90;;;;;;;-2.36;82.69;102345.38;4988699;28;20742;-83
2023/02/28 03:37:57;;;;;;;5.63;3.73;;;;;;;-2.38;82.40;102343.59;4990836;28;20224;-83
2023/02/28 03:40:28;;;;;;;6.93;4.00;;;;;;;-2.42;82.26;102349.59;4999201;28;20196;-83
2023/02/28 03:43:02;;;;;;;4.03;3.50;;;;;;;-2.46;82.71;102349.53;4999109;28;20226;-82
2023/02/28 03:45:32;;;;;;;5.40;3.37;;;;;;;-2.51;82.37;102345.13;4993123;28;20230;-83
2023/02/28 03:48:03;;;;;;;4.33;3.10;;;;;;;-2.53;82.76;102352.03;4991944;28;20235;-83
2023/02/28 03:50:36;;;;;;;5.67;3.60;;;;;;;-2.57;83.13;102351.09;4994639;28;20204;-83
2023/02/28 03:53:11;;;;;;;4.03;3.23;;;;;;;-2.57;83.22;102350.22;4991149;28;20223;-83
2023/02/28 03:55:42;;;;;;;6.17;3.73;;;;;;;-2.57;83.41;102350.22;4992827;28;20215;-83
2023/02/28 03:58:16;;;;;;;5.57;3.00;;;;;;;-2.59;82.93;102355.41;4989541;28;20234;-83
2023/02/28 04:00:47;;;;;;;4.10;2.90;;;;;;;-2.60;83.46;102352.78;4984110;28;20196;-83
2023/02/28 04:03:14;;;;;;;3.20;2.70;;;;;;;-2.62;82.85;102352.75;4986720;28;20208;-83
2023/02/28 04:05:49;;;;;;;5.60;2.93;;;;;;;-2.63;83.59;102350.09;4989967;28;20211;-83
2023/02/28 04:08:17;;;;;;;8.37;3.90;;;;;;;-2.63;83.45;102352.72;4988813;28;20254;-83
2023/02/28 04:10:49;;;;;;;3.70;2.80;;;;;;;-2.66;83.40;102357.88;4983058;28;20207;-83
2023/02/28 04:13:15;;;;;;;6.20;3.30;;;;;;;-2.67;83.19;102357.00;4984305;28;20576;-83
2023/02/28 04:15:41;;;;;;;4.63;3.00;;;;;;;-2.69;83.43;102360.44;5005397;28;20758;-83
2023/02/28 04:18:08;;;;;;;4.27;3.10;;;;;;;-2.72;83.15;102352.56;4985137;28;20224;-83
2023/02/28 04:20:35;;;;;;;4.77;3.13;;;;;;;-2.74;83.18;102365.56;4978438;28;20460;-84
2023/02/28 04:23:01;;;;;;;4.70;2.97;;;;;;;-2.78;83.72;102355.06;4993411;28;20997;-83
2023/02/28 04:25:29;;;;;;;7.13;3.43;;;;;;;-2.80;83.48;102355.91;4997439;28;20204;-83
2023/02/28 04:27:55;;;;;;;5.53;3.47;;;;;;;-2.81;83.23;102361.09;4981274;28;20224;-83
2023/02/28 04:30:22;;;;;;;5.70;3.73;;;;;;;-2.81;83.84;102367.19;4988448;28;20203;-83
2023/02/28 04:32:48;;;;;;;4.10;2.80;;;;;;;-2.83;83.88;102368.88;4996246;28;20204;-83
2023/02/28 04:35:15;;;;;;;5.30;3.40;;;;;;;-2.84;83.74;102367.13;4987393;28;20231;-83
2023/02/28 04:37:42;;;;;;;4.70;3.17;;;;;;;-2.84;83.81;102361.03;4991132;28;20727;-83
2023/02/28 04:40:09;;;;;;;4.43;3.00;;;;;;;-2.85;84.22;102360.13;4990881;28;20207;-83
2023/02/28 04:42:37;;;;;;;3.83;2.93;;;;;;;-2.85;83.81;102367.97;4989561;28;20204;-83
2023/02/28 04:45:04;;;;;;;4.23;3.13;;;;;;;-2.85;84.34;102374.91;4987489;28;20208;-83
2023/02/28 04:47:31;;;;;;;6.00;3.10;;;;;;;-2.87;84.12;102372.28;4990600;28;20231;-84
2023/02/28 04:49:58;;;;;;;4.47;2.90;;;;;;;-2.89;84.10;102384.41;4993175;28;20207;-83
2023/02/28 04:52:28;;;;;;;5.40;2.83;;;;;;;-2.91;84.52;102380.91;4990534;28;20208;-83
2023/02/28 04:54:54;;;;;;;3.33;2.90;;;;;;;-2.93;84.64;102373.91;4991452;28;20220;-83
2023/02/28 04:57:21;;;;;;;4.97;3.17;;;;;;;-2.93;84.70;102371.28;4986046;28;20259;-83
2023/02/28 04:59:49;;;;;;;4.00;3.03;;;;;;;-2.92;84.74;102373.94;4985788;28;20204;-83
2023/02/28 05:02:15;;;;;;;6.27;3.40;;;;;;;-2.91;85.42;102375.69;4987253;28;20219;-82
2023/02/28 05:04:42;;;;;;;4.33;3.00;;;;;;;-2.90;85.12;102377.44;4990316;28;20215;-83
2023/02/28 05:07:09;;;;;;;5.93;3.10;;;;;;;-2.89;85.20;102376.59;4996397;28;20231;-83
2023/02/28 05:09:35;;;;;;;3.70;2.83;;;;;;;-2.87;85.38;102374.91;4984648;28;20207;-83
2023/02/28 05:12:02;;;;;;;5.67;3.10;;;;;;;-2.85;85.83;102374.91;4980579;28;20207;-83
2023/02/28 05:14:28;;;;;;;5.90;3.23;;;;;;;-2.84;85.79;102377.53;4992560;28;20299;-83
2023/02/28 05:16:56;;;;;;;4.77;3.53;;;;;;;-2.81;86.22;102375.00;4991717;28;20206;-83
2023/02/28 05:19:22;;;;;;;4.47;2.77;;;;;;;-2.79;86.39;102369.81;4991090;28;20207;-83
2023/02/28 05:21:51;;;;;;;4.53;3.17;;;;;;;-2.77;86.13;102375.94;4991945;28;20207;-83
2023/02/28 05:24:22;;;;;;;4.90;2.70;;;;;;;-2.75;86.50;102379.47;4991762;28;20200;-83
2023/02/28 05:26:53;;;;;;;5.20;3.17;;;;;;;-2.74;86.47;102368.19;4997388;28;20206;-83
2023/02/28 05:29:19;;;;;;;4.60;3.00;;;;;;;-2.73;86.54;102366.44;4990891;28;20207;-83
2023/02/28 05:31:46;;;;;;;4.97;3.33;;;;;;;-2.71;86.47;102372.56;4984625;28;21599;-83
2023/02/28 05:34:15;;;;;;;5.37;2.87;;;;;;;-2.69;86.69;102368.28;4991343;28;20817;-82
2023/02/28 05:36:42;;;;;;;4.03;2.97;;;;;;;-2.68;86.68;102364.78;4990460;28;20238;-83
2023/02/28 05:39:12;;;;;;;4.63;3.07;;;;;;;-2.67;87.07;102363.94;4980877;28;20814;-83
2023/02/28 05:41:39;;;;;;;3.50;3.07;;;;;;;-2.67;86.78;102361.31;4984019;28;20291;-83
2023/02/28 05:44:06;;;;;;;5.17;3.40;;;;;;;-2.66;86.92;102363.97;4984430;28;20628;-83
2023/02/28 05:46:32;;;;;;;5.13;3.23;;;;;;;-2.66;87.05;102368.31;4985179;28;20210;-83
2023/02/28 05:49:00;;;;;;;5.37;4.10;;;;;;;-2.65;86.76;102362.25;4983616;28;20219;-83
2023/02/28 05:51:28;;;;;;;4.90;3.50;;;;;;;-2.66;86.61;102363.97;4986644;28;20226;-79
2023/02/28 05:53:55;;;;;;;5.17;3.77;;;;;;;-2.67;87.19;102374.38;4984288;28;20243;-81
2023/02/28 05:56:21;;;;;;;6.47;3.80;;;;;;;-2.67;86.79;102369.16;4989013;28;20227;-80
2023/02/28 05:58:48;;;;;;;4.70;3.80;;;;;;;-2.69;86.95;102363.06;4992683;28;20239;-83
2023/02/28 06:01:23;;;;;;;4.87;3.97;;;;;;;-2.70;87.33;102354.34;4992664;28;20671;-82
2023/02/28 06:03:50;;;;;;;6.03;4.03;;;;;;;-2.71;87.07;102368.25;4985183;28;20210;-82
2023/02/28 06:06:16;;;;;;;5.37;4.50;;;;;;;-2.72;87.02;102366.47;4999450;28;20206;-81
2023/02/28 06:08:45;;;;;;;6.67;4.37;;;;;;;-2.73;86.86;102369.06;4994276;28;20224;-81
2023/02/28 06:11:12;;;;;;;7.17;4.37;;;;;;;-2.75;86.99;102368.16;5001162;28;20218;-81
2023/02/28 06:13:38;;;;;;;6.87;4.13;;;;;;;-2.76;86.91;102371.59;4989073;28;20215;-81
2023/02/28 06:16:05;;;;;;;5.00;4.37;;;;;;;-2.76;87.16;102374.22;4999037;28;20234;-81
2023/02/28 06:18:32;;;;;;;5.47;4.27;;;;;;;-2.78;87.20;102379.41;4991113;28;20731;-81
2023/02/28 06:20:59;;;;;;;5.67;4.07;;;;;;;-2.78;86.96;102392.44;4997793;28;20203;-81
2023/02/28 06:23:26;;;;;;;8.73;4.13;;;;;;;-2.84;87.29;102398.41;4987297;28;20208;-81
2023/02/28 06:25:57;;;;;;;5.90;3.83;;;;;;;-2.88;87.44;102394.00;4991770;28;20204;-82
2023/02/28 06:28:23;;;;;;;4.87;4.10;;;;;;;-2.89;87.44;102392.25;4991377;28;20227;-80
2023/02/28 06:30:50;;;;;;;5.83;4.10;;;;;;;-2.88;87.72;102395.72;4995559;28;20203;-81
2023/02/28 06:33:16;;;;;;;7.30;4.20;;;;;;;-2.89;87.66;102389.63;4990572;28;20611;-81
2023/02/28 06:35:44;;;;;;;7.67;4.57;;;;;;;-2.90;87.65;102397.44;4989369;28;20239;-83
2023/02/28 06:38:11;;;;;;;7.90;4.17;;;;;;;-2.91;87.77;102406.97;4990698;28;20243;-81
2023/02/28 06:40:38;;;;;;;6.60;4.30;;;;;;;-2.92;87.71;102412.16;4996384;28;20238;-84
2023/02/28 06:43:05;;;;;;;6.87;5.10;;;;;;;-2.91;87.83;102414.78;4995169;28;20207;-81
2023/02/28 06:45:32;;;;;;;10.00;6.27;;;;;;;-2.90;87.87;102407.84;4990243;28;20600;-82
2023/02/28 06:48:00;;;;;;;6.60;5.50;;;;;;;-2.89;87.55;102423.53;4987121;28;20261;-82
2023/02/28 06:50:29;;;;;;;8.10;5.60;;;;;;;-2.90;87.73;102421.75;4985227;28;20236;-83
2023/02/28 06:52:55;;;;;;;9.33;6.33;;;;;;;-2.91;87.96;102422.63;4994753;28;20752;-83
2023/02/28 06:55:22;;;;;;;8.50;5.90;;;;;;;-2.89;88.22;102427.88;4995996;28;20230;-82
2023/02/28 06:57:50;;;;;;;10.13;5.93;;;;;;;-2.87;88.29;102426.16;4998264;28;20227;-82
2023/02/28 07:00:19;;;;;;;10.27;6.07;;;;;;;-2.85;88.27;102427.03;4981770;28;20210;-83
2023/02/28 07:02:45;;;;;;;7.30;5.93;;;;;;;-2.82;88.32;102430.59;4998756;28;20207;-81
2023/02/28 07:05:12;;;;;;;11.20;6.60;;;;;;;-2.78;88.54;102425.44;4994140;28;20572;-81
2023/02/28 07:07:40;;;;;;;7.93;6.77;;;;;;;-2.76;88.54;102432.47;4992938;28;20612;-83
2023/02/28 07:10:07;;;;;;;9.37;6.60;;;;;;;-2.73;88.44;102442.06;4993445;28;20225;-81
2023/02/28 07:12:34;;;;;;;7.33;5.10;;;;;;;-2.71;89.01;102438.66;4996402;28;20203;-81
2023/02/28 07:15:00;;;;;;;7.17;5.20;;;;;;;-2.69;89.05;102436.06;4997120;28;20223;-86
2023/02/28 07:17:28;;;;;;;6.27;5.33;;;;;;;-2.67;88.64;102442.16;4994638;28;20226;-81
2023/02/28 07:19:54;;;;;;;12.87;6.77;;;;;;;-2.65;89.21;102443.09;4995926;28;20208;-81
2023/02/28 07:22:21;;;;;;;8.67;5.00;;;;;;;-2.61;89.04;102448.41;5004596;28;20211;-82
2023/02/28 07:24:47;;;;;;;7.50;5.83;;;;;;;-2.58;89.35;102437.16;4993401;28;20200;-83
2023/02/28 07:27:25;;;;;;;9.83;6.17;;;;;;;-2.54;89.13;102444.19;4992406;28;21485;-83
2023/02/28 07:29:52;;;;;;;9.87;6.57;;;;;;;-2.48;89.32;102450.38;4989811;28;20302;-81
2023/02/28 07:32:19;;;;;;;11.50;7.70;;;;;;;-2.43;90.08;102449.59;4995643;28;20211;-82
2023/02/28 07:34:47;;;;;;;13.10;7.70;;;;;;;-2.39;89.56;102454.91;4990184;28;20253;-82
2023/02/28 07:37:14;;;;;;;11.20;6.57;;;;;;;-2.34;89.58;102444.56;4993264;28;20227;-83
2023/02/28 07:39:42;;;;;;;8.57;6.23;;;;;;;-2.29;90.10;102445.50;4990047;28;20204;-82
2023/02/28 07:42:10;;;;;;;9.07;6.10;;;;;;;-2.27;90.00;102451.63;4989703;28;20208;-82
2023/02/28 07:44:40;;;;;;;10.40;6.93;;;;;;;-2.22;90.78;102455.22;4984138;28;20287;-82
2023/02/28 07:47:06;;;;;;;10.50;6.67;;;;;;;-2.17;90.57;102446.63;4991607;28;20223;-81
2023/02/28 07:49:33;;;;;;;10.83;6.90;;;;;;;-2.12;90.91;102450.16;5001506;28;20208;-84
2023/02/28 07:52:01;;;;;;;11.13;7.43;;;;;;;-2.06;90.73;102451.13;4991172;28;20204;-81
2023/02/28 07:54:27;;;;;;;9.97;7.23;;;;;;;-2.02;91.66;102447.72;4988330;28;20205;-81
2023/02/28 07:56:54;;;;;;;13.67;7.63;;;;;;;-1.94;92.09;102446.97;4999453;28;20239;-81
2023/02/28 07:59:20;;;;;;;13.40;7.97;;;;;;;-1.82;92.47;102441.97;4998410;28;20656;-82
2023/02/28 08:01:49;;;;;;;18.87;11.17;;;;;;;-1.70;92.62;102438.66;4997241;28;20208;-83
2023/02/28 08:04:15;;;;;;;10.17;6.70;;;;;;;-1.57;93.03;102439.72;5000956;28;20787;-84
2023/02/28 08:06:42;;;;;;;9.80;5.80;;;;;;;-1.45;93.70;102451.25;5000142;28;20200;-84
2023/02/28 08:09:10;;;;;;;11.50;6.70;;;;;;;-1.31;93.66;102456.69;4988724;28;20234;-82
2023/02/28 08:11:37;;;;;;;8.60;6.40;;;;;;;-1.19;93.38;102449.00;4995624;28;20214;-82
2023/02/28 08:14:03;;;;;;;7.77;6.03;;;;;;;-1.05;93.61;102444.81;4987733;28;20220;-81
2023/02/28 08:16:30;;;;;;;7.47;6.20;;;;;;;-0.92;93.53;102445.88;4986527;28;20230;-81
2023/02/28 08:18:56;;;;;;;6.90;5.77;;;;;;;-0.77;93.90;102434.72;4996593;28;20231;-83
2023/02/28 08:21:23;;;;;;;9.90;6.80;;;;;;;-0.62;93.31;102439.22;4995354;28;20569;-82
2023/02/28 08:23:50;;;;;;;9.50;6.13;;;;;;;-0.50;93.07;102441.97;4999015;28;20212;-82
2023/02/28 08:26:19;;;;;;;13.10;6.13;;;;;;;-0.38;92.61;102444.75;4995192;28;20204;-82
2023/02/28 08:28:46;;;;;;;6.43;5.47;;;;;;;-0.24;92.51;102443.13;4998930;28;20227;-82
2023/02/28 08:31:15;;;;;;;7.83;6.30;;;;;;;-0.10;91.96;102436.28;5000422;28;20211;-81
2023/02/28 08:33:44;;;;;;;8.60;6.00;;;;;;;0.06;91.78;102450.38;4998734;28;20218;-81
2023/02/28 08:36:11;;;;;;;7.60;5.63;;;;;;;0.20;91.35;102458.34;4996239;28;20261;-81
2023/02/28 08:38:38;;;;;;;10.23;6.30;;;;;;;0.32;90.77;102437.50;5001860;28;20223;-80
2023/02/28 08:41:07;;;;;;;7.70;5.47;;;;;;;0.45;90.09;102447.19;5002575;28;20211;-81
2023/02/28 08:43:35;;;;;;;9.80;6.07;;;;;;;0.57;89.31;102443.75;5002366;28;20207;-81
2023/02/28 08:46:02;;;;;;;8.33;5.60;;;;;;;0.69;88.85;102449.97;5003928;28;20205;-83
2023/02/28 08:48:30;;;;;;;6.90;4.30;;;;;;;0.81;88.07;102448.28;4996206;28;20590;-84
2023/02/28 08:50:58;;;;;;;5.50;3.50;;;;;;;0.90;87.11;102448.31;4981508;28;20205;-83
2023/02/28 08:53:25;;;;;;;4.70;3.50;;;;;;;1.00;85.73;102452.75;4997218;28;20207;-81
2023/02/28 08:55:57;;;;;;;5.80;3.93;;;;;;;1.10;85.36;102462.41;5001852;28;20234;-82
2023/02/28 08:58:24;;;;;;;5.03;3.47;;;;;;;1.21;84.00;102455.47;4990841;28;20223;-80
2023/02/28 09:00:52;;;;;;;8.43;3.93;;;;;;;1.28;83.04;102446.72;4991224;28;20209;-82
2023/02/28 09:03:19;;;;;;;4.93;3.40;;;;;;;1.38;81.74;102451.16;4998671;28;20603;-83
2023/02/28 09:05:53;;;;;;;6.80;3.67;;;;;;;1.45;80.48;102448.53;4994330;28;20203;-81
2023/02/28 09:08:19;;;;;;;4.87;3.63;;;;;;;1.50;80.23;102452.94;4992528;28;20242;-80
2023/02/28 09:10:46;;;;;;;4.50;3.57;;;;;;;1.58;78.98;102452.97;4998137;28;20204;-82
2023/02/28 09:13:12;;;;;;;4.17;3.30;;;;;;;1.66;79.05;102451.22;5014029;28;20202;-82
2023/02/28 09:15:39;;;;;;;3.90;3.50;;;;;;;1.78;78.58;102453.88;5018055;28;20210;-80
2023/02/28 09:18:07;;;;;;;5.50;3.47;;;;;;;1.89;77.77;102457.41;5018832;28;20227;-82
2023/02/28 09:20:33;;;;;;;4.57;3.40;;;;;;;2.00;77.13;102453.00;5016846;28;20466;-80
2023/02/28 09:23:00;;;;;;;4.03;3.27;;;;;;;2.12;76.25;102461.81;5018990;28;20210;-83
2023/02/28 09:25:26;;;;;;;5.30;2.83;;;;;;;2.19;76.00;102451.25;5019486;28;20203;-80
2023/02/28 09:27:52;;;;;;;5.83;3.23;;;;;;;2.29;75.34;102452.16;5018098;28;20234;-82
2023/02/28 09:30:19;;;;;;;85.87;11.57;;;;;;;2.34;73.87;102455.63;5017298;28;20213;-82
2023/02/28 09:32:51;;;;;;;5.43;3.40;;;;;;;2.42;73.75;102459.16;5020177;28;20211;-82
2023/02/28 09:35:20;;;;;;;3.53;2.70;;;;;;;2.53;73.82;102460.00;5021038;28;20227;-80
2023/02/28 09:37:47;;;;;;;3.87;2.70;;;;;;;2.59;73.23;102460.00;5020882;28;20293;-82
2023/02/28 09:40:17;;;;;;;4.03;2.83;;;;;;;2.66;72.87;102458.25;5021539;28;20214;-80
2023/02/28 09:42:46;;;;;;;4.37;2.73;;;;;;;2.70;71.95;102463.47;5020279;28;20203;-81
2023/02/28 09:45:22;;;;;;;3.97;2.80;;;;;;;2.76;71.55;102454.72;5017255;28;20214;-83
2023/02/28 09:47:51;;;;;;;4.47;2.50;;;;;;;2.85;71.21;102461.72;5017166;28;20253;-83
2023/02/28 09:50:32;;;;;;;5.57;2.37;;;;;;;2.91;70.27;102457.28;5015985;28;20211;-83
2023/02/28 09:53:00;;;;;;;4.13;2.40;;;;;;;2.97;69.68;102462.56;5017694;28;20245;-82
2023/02/28 09:55:31;;;;;;;2.47;2.27;;;;;;;3.04;69.64;102460.78;5016235;28;20214;-81
2023/02/28 09:57:59;;;;;;;2.27;2.00;;;;;;;3.11;69.18;102467.75;5015252;28;20231;-83
2023/02/28 10:00:33;;;;;;;2.10;1.83;;;;;;;3.13;68.98;102460.72;5018273;28;20671;-83
2023/02/28 10:03:16;;;;;;;2.27;1.70;;;;;;;3.13;67.68;102460.72;5017592;28;20210;-82
2023/02/28 10:05:53;;;;;;;3.50;2.10;;;;;;;3.13;68.00;102466.88;5018033;28;20199;-83
2023/02/28 10:08:25;;;;;;;5.47;2.30;;;;;;;3.16;67.04;102454.59;5015844;28;20300;-82
2023/02/28 10:10:55;;;;;;;3.23;2.37;;;;;;;3.14;66.84;102458.09;5017081;28;20187;-82
2023/02/28 10:13:26;;;;;;;4.87;2.30;;;;;;;3.18;67.31;102458.09;5016982;28;20274;-81
2023/02/28 10:15:56;;;;;;;4.80;2.20;;;;;;;3.25;67.41;102454.53;5016329;28;20213;-82
2023/02/28 10:18:27;;;;;;;3.57;2.20;;;;;;;3.34;66.68;102460.66;5016132;28;20230;-81
2023/02/28 10:20:56;;;;;;;4.10;2.63;;;;;;;3.42;67.13;102461.47;5015890;28;20556;-80
2023/02/28 10:23:27;;;;;;;5.37;2.53;;;;;;;3.47;66.05;102467.59;5004675;28;20563;-82
2023/02/28 10:25:57;;;;;;;4.73;2.67;;;;;;;3.53;65.84;102455.28;4997074;28;20768;-82
2023/02/28 10:28:26;;;;;;;4.03;2.67;;;;;;;3.63;66.29;102456.97;4996399;28;20232;-80
2023/02/28 10:30:54;;;;;;;2.83;2.40;;;;;;;3.74;66.04;102452.53;4997556;28;20210;-80
2023/02/28 10:33:24;;;;;;;3.90;2.40;;;;;;;3.79;65.45;102448.06;4997512;28;20216;-80
2023/02/28 10:35:51;;;;;;;2.73;2.37;;;;;;;3.81;65.13;102448.94;4998022;28;20208;-80
2023/02/28 10:38:22;;;;;;;3.73;2.70;;;;;;;3.85;65.06;102450.69;4997679;28;20231;-82
2023/02/28 10:40:48;;;;;;;4.87;2.57;;;;;;;3.91;65.24;102445.38;4998663;28;20188;-82
2023/02/28 10:43:21;;;;;;;6.10;3.40;;;;;;;3.99;65.37;102446.19;4997348;28;20214;-82
2023/02/28 10:45:56;;;;;;;3.93;2.70;;;;;;;4.06;65.05;102447.91;4998175;28;20195;-80
2023/02/28 10:48:31;;;;;;;2.83;2.30;;;;;;;4.15;65.05;102445.16;4997174;28;20219;-81
2023/02/28 10:50:58;;;;;;;3.80;2.53;;;;;;;4.20;64.57;102450.41;4998024;28;20194;-80
2023/02/28 10:53:33;;;;;;;5.23;2.53;;;;;;;4.29;64.31;102441.56;5000197;28;20211;-80
2023/02/28 10:56:02;;;;;;;4.17;2.50;;;;;;;4.34;64.18;102440.63;4998761;28;20238;-81
2023/02/28 10:58:30;;;;;;;4.23;2.60;;;;;;;4.39;63.20;102448.50;4996592;28;20235;-80
2023/02/28 11:00:58;;;;;;;3.83;2.30;;;;;;;4.42;63.12;102441.44;4997414;28;20218;-80
2023/02/28 11:03:35;;;;;;;4.07;2.37;;;;;;;4.47;63.07;102441.41;4995388;28;20605;-81
2023/02/28 11:06:07;;;;;;;5.27;2.70;;;;;;;4.52;62.87;102436.94;4987557;28;20196;-80
2023/02/28 11:08:44;;;;;;;3.27;2.33;;;;;;;4.56;63.00;102438.66;4996100;28;20231;-80
2023/02/28 11:11:10;;;;;;;2.40;2.20;;;;;;;4.66;62.48;102439.44;4993310;28;20205;-80
2023/02/28 11:13:38;;;;;;;3.70;2.50;;;;;;;4.71;62.18;102427.94;4993053;28;20291;-82
2023/02/28 11:16:07;;;;;;;3.30;2.43;;;;;;;4.82;62.88;102434.00;4997778;28;20220;-80
2023/02/28 11:18:41;;;;;;;3.80;2.83;;;;;;;4.92;62.40;102421.53;4989822;28;20727;-82
2023/02/28 11:21:10;;;;;;;3.53;2.10;;;;;;;5.00;61.92;102429.38;4997547;28;20211;-81
2023/02/28 11:23:42;;;;;;;2.37;1.90;;;;;;;5.09;61.20;102426.63;4998812;28;20214;-80
2023/02/28 11:26:10;;;;;;;4.00;2.40;;;;;;;5.10;60.00;102418.69;5000567;28;20206;-80
2023/02/28 11:28:39;;;;;;;4.73;2.50;;;;;;;5.13;59.16;102421.28;4997140;28;20231;-79
2023/02/28 11:31:19;;;;;;;3.27;2.30;;;;;;;5.17;59.34;102412.44;4998973;28;20210;-79
2023/02/28 11:33:48;;;;;;;4.37;2.27;;;;;;;5.16;58.54;102409.81;4995228;28;20200;-81
2023/02/28 11:36:19;;;;;;;4.37;2.43;;;;;;;5.12;58.73;102414.25;5000237;28;20203;-81